createdAt,value
2019-04-26T00:00:03.081Z,35.90
2019-04-26T00:02:43.578Z,35.80
2019-04-26T00:05:17.207Z,35.70
2019-04-26T00:07:51.279Z,35.30
2019-04-26T00:10:31.957Z,35.60
2019-04-26T00:13:27.574Z,35.60
2019-04-26T00:16:22.784Z,35.70
2019-04-26T00:18:56.619Z,35.80
2019-04-26T00:21:30.312Z,35.70
2019-04-26T00:24:03.820Z,36.50
2019-04-26T00:26:37.103Z,35.70
2019-04-26T00:29:11.368Z,35.80
2019-04-26T00:31:44.675Z,35.90
2019-04-26T00:34:19.531Z,36.00
2019-04-26T00:36:52.760Z,35.90
2019-04-26T00:39:26.441Z,36.00
2019-04-26T00:42:00.101Z,36.50
2019-04-26T00:44:33.418Z,36.60
2019-04-26T00:47:09.739Z,36.90
2019-04-26T00:49:44.216Z,36.80
2019-04-26T00:52:18.132Z,37.00
2019-04-26T00:54:52.362Z,37.00
2019-04-26T00:57:26.914Z,36.90
2019-04-26T01:00:01.007Z,37.00
2019-04-26T01:02:38.861Z,37.00
2019-04-26T01:05:12.111Z,36.90
2019-04-26T01:07:47.314Z,36.90
2019-04-26T01:10:21.619Z,36.70
2019-04-26T01:12:54.871Z,36.70
2019-04-26T01:15:28.168Z,36.60
2019-04-26T01:18:01.702Z,36.50
2019-04-26T01:20:37.354Z,36.50
2019-04-26T01:23:14.381Z,36.40
2019-04-26T01:26:09.152Z,36.40
2019-04-26T01:28:56.651Z,36.40
2019-04-26T01:31:34.317Z,36.40
2019-04-26T01:34:07.409Z,36.40
2019-04-26T01:36:41.985Z,36.40
2019-04-26T01:39:21.266Z,36.40
2019-04-26T01:42:03.427Z,36.10
2019-04-26T01:44:47.863Z,36.40
2019-04-26T01:47:22.161Z,36.10
2019-04-26T01:49:56.169Z,36.20
2019-04-26T01:52:30.297Z,36.00
2019-04-26T01:55:03.566Z,35.70
2019-04-26T01:57:37.084Z,35.50
2019-04-26T02:00:25.581Z,35.80
2019-04-26T02:03:02.549Z,35.40
2019-04-26T02:05:35.851Z,35.30
2019-04-26T02:08:10.544Z,35.30
2019-04-26T02:10:44.127Z,35.40
2019-04-26T02:13:17.482Z,35.40
2019-04-26T02:15:50.726Z,35.30
2019-04-26T02:18:25.413Z,35.50
2019-04-26T02:21:24.502Z,35.50
2019-04-26T02:24:17.546Z,35.50
2019-04-26T02:26:52.328Z,35.70
2019-04-26T02:29:31.182Z,35.70
2019-04-26T02:32:09.145Z,35.60
2019-04-26T02:34:43.520Z,35.70
2019-04-26T02:37:17.575Z,35.40
2019-04-26T02:39:52.913Z,35.50
2019-04-26T02:42:36.718Z,35.60
2019-04-26T02:45:58.328Z,35.40
2019-04-26T02:48:51.918Z,35.40
2019-04-26T02:51:36.266Z,35.60
2019-04-26T02:54:29.077Z,35.60
2019-04-26T02:57:05.001Z,35.60
2019-04-26T02:59:47.854Z,35.50
2019-04-26T03:02:33.289Z,35.40
2019-04-26T03:05:09.954Z,35.50
2019-04-26T03:08:18.827Z,35.30
2019-04-26T03:11:22.476Z,35.40
2019-04-26T03:14:21.060Z,35.40
2019-04-26T03:17:16.079Z,35.50
2019-04-26T03:20:01.857Z,35.50
2019-04-26T03:23:01.456Z,35.60
2019-04-26T03:26:00.140Z,35.60
2019-04-26T03:29:16.108Z,35.60
2019-04-26T03:32:30.000Z,35.70
2019-04-26T03:35:55.364Z,35.80
2019-04-26T03:38:53.995Z,36.00
2019-04-26T03:41:44.466Z,36.10
2019-04-26T03:44:40.925Z,36.20
2019-04-26T03:47:20.258Z,36.30
2019-04-26T03:50:30.986Z,36.30
2019-04-26T03:53:38.305Z,35.90
2019-04-26T03:57:13.839Z,36.10
2019-04-26T04:00:38.760Z,36.30
2019-04-26T04:04:09.533Z,36.20
2019-04-26T04:07:02.676Z,36.40
2019-04-26T04:09:21.040Z,36.20
2019-04-26T04:12:12.711Z,36.20
2019-04-26T04:15:16.447Z,36.20
2019-04-26T04:17:59.138Z,36.50
2019-04-26T04:21:12.440Z,36.30
2019-04-26T04:24:14.638Z,36.30
2019-04-26T04:27:13.651Z,36.20
2019-04-26T04:30:31.046Z,36.50
2019-04-26T04:34:11.707Z,36.30
2019-04-26T04:36:55.942Z,36.00
2019-04-26T04:39:49.907Z,35.70
2019-04-26T04:43:30.811Z,35.40
2019-04-26T04:46:54.174Z,35.30
2019-04-26T04:50:33.986Z,35.50
2019-04-26T04:53:56.783Z,35.70
2019-04-26T04:57:37.351Z,35.80
2019-04-26T05:00:31.024Z,35.90
2019-04-26T05:03:37.967Z,36.20
2019-04-26T05:06:28.799Z,36.00
2019-04-26T05:09:30.694Z,36.10
2019-04-26T05:12:16.237Z,36.00
2019-04-26T05:15:39.618Z,35.80
2019-04-26T05:19:28.440Z,35.90
2019-04-26T05:23:01.603Z,36.10
2019-04-26T05:26:47.671Z,36.30
2019-04-26T05:30:40.939Z,36.30
2019-04-26T05:33:48.852Z,36.20
2019-04-26T05:37:05.943Z,35.80
2019-04-26T05:40:06.750Z,35.30
2019-04-26T05:43:50.253Z,35.10
2019-04-26T05:47:37.703Z,35.10
2019-04-26T05:51:18.671Z,34.80
2019-04-26T05:54:49.596Z,35.90
2019-04-26T05:58:11.501Z,35.50
2019-04-26T06:01:32.895Z,35.70
2019-04-26T06:04:43.211Z,35.60
2019-04-26T06:08:04.554Z,35.20
2019-04-26T06:11:00.045Z,35.60
2019-04-26T06:14:50.485Z,35.30
2019-04-26T06:18:19.932Z,35.20
2019-04-26T06:21:36.893Z,34.60
2019-04-26T06:24:45.602Z,34.50
2019-04-26T06:28:00.627Z,34.60
2019-04-26T06:31:15.095Z,34.50
2019-04-26T06:34:24.014Z,34.90
2019-04-26T06:37:21.070Z,34.70
2019-04-26T06:40:14.993Z,34.70
2019-04-26T06:43:19.530Z,34.70
2019-04-26T06:47:01.767Z,34.30
2019-04-26T06:50:16.810Z,34.00
2019-04-26T06:53:38.335Z,33.80
2019-04-26T06:56:50.905Z,33.80
2019-04-26T07:00:07.078Z,33.40
2019-04-26T07:03:11.279Z,33.80
2019-04-26T07:05:49.378Z,33.80
2019-04-26T07:09:13.086Z,33.20
2019-04-26T07:12:50.428Z,33.20
2019-04-26T07:16:22.367Z,32.90
2019-04-26T07:20:34.330Z,32.30
2019-04-26T07:24:16.750Z,32.30
2019-04-26T07:28:11.864Z,32.30
2019-04-26T07:31:09.014Z,32.60
2019-04-26T07:34:44.896Z,32.60
2019-04-26T07:38:04.827Z,32.30
2019-04-26T07:41:33.140Z,32.20
2019-04-26T07:44:55.287Z,32.00
2019-04-26T07:48:19.313Z,31.80
2019-04-26T07:51:57.812Z,31.70
2019-04-26T07:55:14.912Z,32.10
2019-04-26T07:58:40.122Z,32.50
2019-04-26T08:02:06.695Z,32.50
2019-04-26T08:04:49.213Z,32.60
2019-04-26T08:07:28.310Z,32.80
2019-04-26T08:10:23.922Z,32.60
2019-04-26T08:13:09.988Z,32.70
2019-04-26T08:16:17.037Z,32.50
2019-04-26T08:19:00.222Z,32.30
2019-04-26T08:21:42.557Z,32.10
2019-04-26T08:24:23.635Z,32.20
2019-04-26T08:27:26.410Z,31.20
2019-04-26T08:30:10.120Z,31.10
2019-04-26T08:32:49.788Z,31.10
2019-04-26T08:35:29.071Z,30.60
2019-04-26T08:38:16.367Z,30.70
2019-04-26T08:40:46.250Z,31.50
2019-04-26T08:43:44.571Z,30.90
2019-04-26T08:46:41.899Z,30.90
2019-04-26T08:49:35.117Z,31.30
2019-04-26T08:52:14.565Z,31.10
2019-04-26T08:54:54.972Z,30.60
2019-04-26T08:57:33.610Z,30.80
2019-04-26T09:00:15.483Z,30.80
2019-04-26T09:03:12.054Z,30.30
2019-04-26T09:06:04.358Z,30.00
2019-04-26T09:08:43.473Z,30.70
2019-04-26T09:11:25.955Z,32.30
2019-04-26T09:13:59.646Z,31.40
2019-04-26T09:16:32.815Z,30.50
2019-04-26T09:19:05.995Z,29.80
2019-04-26T09:22:13.684Z,30.00
2019-04-26T09:24:55.051Z,30.20
2019-04-26T09:27:42.247Z,30.40
2019-04-26T09:30:33.841Z,30.00
2019-04-26T09:33:21.659Z,30.20
2019-04-26T09:35:55.874Z,30.40
2019-04-26T09:38:29.667Z,30.30
2019-04-26T09:41:03.554Z,30.90
2019-04-26T09:44:00.319Z,29.60
2019-04-26T09:46:55.768Z,29.80
2019-04-26T09:49:37.324Z,29.40
2019-04-26T09:52:17.820Z,29.50
2019-04-26T09:54:50.970Z,30.10
2019-04-26T09:57:24.412Z,29.50
2019-04-26T09:59:57.565Z,29.60
2019-04-26T10:02:33.974Z,29.40
2019-04-26T10:05:08.028Z,29.70
2019-04-26T10:07:40.589Z,29.00
2019-04-26T10:10:22.814Z,29.50
2019-04-26T10:13:10.374Z,29.80
2019-04-26T10:16:13.999Z,28.80
2019-04-26T10:18:54.488Z,29.40
2019-04-26T10:21:25.705Z,29.50
2019-04-26T10:23:58.047Z,27.90
2019-04-26T10:26:31.468Z,28.40
2019-04-26T10:29:05.308Z,28.70
2019-04-26T10:31:38.637Z,28.70
2019-04-26T10:34:12.919Z,28.10
2019-04-26T10:36:46.555Z,28.00
2019-04-26T10:39:20.664Z,28.20
2019-04-26T10:41:54.488Z,28.50
2019-04-26T10:44:28.451Z,28.60
2019-04-26T10:47:04.487Z,28.00
2019-04-26T10:49:58.167Z,28.00
2019-04-26T10:52:41.603Z,29.00
2019-04-26T10:55:31.265Z,28.60
2019-04-26T10:58:14.443Z,28.00
2019-04-26T11:00:52.753Z,26.90
2019-04-26T11:03:24.635Z,27.80
2019-04-26T11:05:58.376Z,27.10
2019-04-26T11:08:31.260Z,27.30
2019-04-26T11:11:04.942Z,26.40
2019-04-26T11:13:38.261Z,26.20
2019-04-26T11:16:12.091Z,27.00
2019-04-26T11:18:45.358Z,27.30
2019-04-26T11:21:20.777Z,27.10
2019-04-26T11:23:54.225Z,27.40
2019-04-26T11:26:31.033Z,27.20
2019-04-26T11:29:03.174Z,27.30
2019-04-26T11:31:36.804Z,26.60
2019-04-26T11:34:10.574Z,26.90
2019-04-26T11:36:44.667Z,26.80
2019-04-26T11:39:18.764Z,26.50
2019-04-26T11:41:52.767Z,26.20
2019-04-26T11:44:27.517Z,26.50
2019-04-26T11:47:07.638Z,25.20
2019-04-26T11:49:41.605Z,25.90
2019-04-26T11:52:12.734Z,25.80
2019-04-26T11:54:45.984Z,25.70
2019-04-26T11:57:19.086Z,25.10
2019-04-26T11:59:51.506Z,26.00
2019-04-26T12:02:24.352Z,25.30
2019-04-26T12:05:24.687Z,25.70
2019-04-26T12:08:02.376Z,26.00
2019-04-26T12:10:35.298Z,25.70
2019-04-26T12:13:08.709Z,24.60
2019-04-26T12:15:43.686Z,24.00
2019-04-26T12:18:18.388Z,24.80
2019-04-26T12:20:51.899Z,24.60
2019-04-26T12:23:24.791Z,25.10
2019-04-26T12:25:56.801Z,24.50
2019-04-26T12:28:30.093Z,24.60
2019-04-26T12:31:03.015Z,24.00
2019-04-26T12:33:39.079Z,24.10
2019-04-26T12:36:13.351Z,23.30
2019-04-26T12:38:45.735Z,23.40
2019-04-26T12:41:25.214Z,23.60
2019-04-26T12:43:58.908Z,24.10
2019-04-26T12:46:43.443Z,23.60
2019-04-26T12:49:16.413Z,23.70
2019-04-26T12:51:49.786Z,23.00
2019-04-26T12:54:22.769Z,23.50
2019-04-26T12:56:55.173Z,23.80
2019-04-26T12:59:28.252Z,23.60
2019-04-26T13:02:05.753Z,23.10
2019-04-26T13:04:36.142Z,23.60
2019-04-26T13:07:23.574Z,23.80
2019-04-26T13:10:12.756Z,23.80
2019-04-26T13:13:04.008Z,24.30
2019-04-26T13:16:21.734Z,24.40
2019-04-26T13:18:52.838Z,23.00
2019-04-26T13:21:26.193Z,23.00
2019-04-26T13:24:03.952Z,22.20
2019-04-26T13:26:36.302Z,21.70
2019-04-26T13:29:09.395Z,21.60
2019-04-26T13:31:42.668Z,20.60
2019-04-26T13:34:14.662Z,21.00
2019-04-26T13:36:47.929Z,20.20
2019-04-26T13:39:22.361Z,20.60
2019-04-26T13:42:02.958Z,20.10
2019-04-26T13:44:45.995Z,20.20
2019-04-26T13:47:46.465Z,19.90
2019-04-26T13:50:32.191Z,20.20
2019-04-26T13:53:06.115Z,19.70
2019-04-26T13:55:39.993Z,19.60
2019-04-26T13:58:15.415Z,19.60
2019-04-26T14:00:49.038Z,20.20
2019-04-26T14:03:22.333Z,20.10
2019-04-26T14:05:55.149Z,20.10
2019-04-26T14:08:28.820Z,20.40
2019-04-26T14:11:02.965Z,20.20
2019-04-26T14:13:36.775Z,20.00
2019-04-26T14:16:09.451Z,19.90
2019-04-26T14:18:43.256Z,20.70
2019-04-26T14:21:16.837Z,20.50
2019-04-26T14:24:08.581Z,20.60
2019-04-26T14:26:44.632Z,20.90
2019-04-26T14:29:18.415Z,21.40
2019-04-26T14:31:53.134Z,21.10
2019-04-26T14:34:26.167Z,21.80
2019-04-26T14:37:06.323Z,22.10
2019-04-26T14:39:49.252Z,22.20
2019-04-26T14:42:09.112Z,22.40
2019-04-26T14:44:49.556Z,22.60
2019-04-26T14:47:18.483Z,22.20
2019-04-26T14:49:53.462Z,22.20
2019-04-26T14:52:29.000Z,22.70
2019-04-26T14:55:02.529Z,23.10
2019-04-26T14:57:36.653Z,22.80
2019-04-26T15:00:12.721Z,23.20
2019-04-26T15:02:56.118Z,23.20
2019-04-26T15:05:46.477Z,22.70
2019-04-26T15:08:20.024Z,22.90
2019-04-26T15:11:00.913Z,23.60
2019-04-26T15:13:29.249Z,23.50
2019-04-26T15:16:03.927Z,23.80
2019-04-26T15:18:37.849Z,23.70
2019-04-26T15:21:12.886Z,23.30
2019-04-26T15:23:47.024Z,23.70
2019-04-26T15:26:24.253Z,24.00
2019-04-26T15:28:54.684Z,24.70
2019-04-26T15:31:28.413Z,25.30
2019-04-26T15:34:03.240Z,25.10
2019-04-26T15:36:37.429Z,25.40
2019-04-26T15:39:45.296Z,25.60
2019-04-26T15:42:36.817Z,25.70
2019-04-26T15:45:17.180Z,25.70
2019-04-26T15:48:16.161Z,25.70
2019-04-26T15:50:50.600Z,25.80
2019-04-26T15:53:23.950Z,26.10
2019-04-26T15:55:57.400Z,26.20
2019-04-26T15:58:30.968Z,26.00
2019-04-26T16:01:06.778Z,26.10
2019-04-26T16:03:41.154Z,26.00
2019-04-26T16:06:16.216Z,26.00
2019-04-26T16:08:50.158Z,25.80
2019-04-26T16:11:22.930Z,25.80
2019-04-26T16:13:56.947Z,25.90
2019-04-26T16:16:32.994Z,26.00
2019-04-26T16:19:05.701Z,26.10
2019-04-26T16:21:38.944Z,25.80
2019-04-26T16:24:12.912Z,26.00
2019-04-26T16:26:55.974Z,26.00
2019-04-26T16:29:46.617Z,26.00
2019-04-26T16:32:52.655Z,26.40
2019-04-26T16:38:20.221Z,26.70
2019-04-26T16:40:55.149Z,26.60
2019-04-26T16:43:39.631Z,26.70
2019-04-26T16:46:03.516Z,26.70
2019-04-26T16:48:36.919Z,27.00
2019-04-26T16:51:09.805Z,27.00
2019-04-26T16:53:58.500Z,27.00
2019-04-26T16:56:25.809Z,27.00
2019-04-26T16:58:54.975Z,27.00
2019-04-26T17:00:30.713Z,26.40
2019-04-26T17:01:27.307Z,27.10
2019-04-26T17:04:01.049Z,27.20
2019-04-26T17:06:34.320Z,27.30
2019-04-26T17:09:09.748Z,27.30
2019-04-26T17:11:43.492Z,27.30
2019-04-26T17:14:16.097Z,27.40
2019-04-26T17:16:49.004Z,27.50
2019-04-26T17:19:22.786Z,27.70
2019-04-26T17:22:15.817Z,27.60
2019-04-26T17:25:12.544Z,27.70
2019-04-26T17:27:47.151Z,28.00
2019-04-26T17:30:23.404Z,28.20
2019-04-26T17:32:57.047Z,29.10
2019-04-26T17:35:29.782Z,30.20
2019-04-26T17:38:05.001Z,31.70
2019-04-26T17:40:38.022Z,30.60
2019-04-26T17:43:11.417Z,30.90
2019-04-26T17:45:44.933Z,29.90
2019-04-26T17:48:18.233Z,30.90
2019-04-26T17:50:52.038Z,30.80
2019-04-26T17:53:28.799Z,30.20
2019-04-26T17:56:00.668Z,31.00
2019-04-26T17:58:35.758Z,32.30
2019-04-26T18:01:08.354Z,31.50
2019-04-26T18:03:50.750Z,30.80
2019-04-26T18:06:28.819Z,29.80
2019-04-26T18:08:54.904Z,31.80
2019-04-26T18:11:27.094Z,31.50
2019-04-26T18:14:00.559Z,31.90
2019-04-26T18:16:34.475Z,31.80
2019-04-26T18:19:30.457Z,30.10
2019-04-26T18:22:16.863Z,30.30
2019-04-26T18:24:49.760Z,30.70
2019-04-26T18:27:24.070Z,30.60
2019-04-26T18:29:59.849Z,33.20
2019-04-26T18:32:33.951Z,33.00
2019-04-26T18:35:09.217Z,32.80
2019-04-26T18:37:43.288Z,33.50
2019-04-26T18:40:16.516Z,33.50
2019-04-26T18:42:50.246Z,34.20
2019-04-26T18:45:28.807Z,36.50
2019-04-26T18:48:01.156Z,32.60
2019-04-26T18:50:36.549Z,33.30
2019-04-26T18:53:26.642Z,33.60
2019-04-26T18:56:03.474Z,33.90
2019-04-26T18:58:38.064Z,35.10
2019-04-26T19:01:13.600Z,35.50
2019-04-26T19:03:49.378Z,35.30
2019-04-26T19:06:31.129Z,35.00
2019-04-26T19:09:02.356Z,34.90
2019-04-26T19:11:34.214Z,33.90
2019-04-26T19:14:24.211Z,34.50
2019-04-26T19:17:14.961Z,33.80
2019-04-26T19:20:12.301Z,33.70
2019-04-26T19:22:51.931Z,33.20
2019-04-26T19:25:25.482Z,33.60
2019-04-26T19:28:03.525Z,33.20
2019-04-26T19:30:33.891Z,33.00
2019-04-26T19:33:11.649Z,33.60
2019-04-26T19:35:44.076Z,33.70
2019-04-26T19:38:15.227Z,33.60
2019-04-26T19:40:48.564Z,33.60
2019-04-26T19:43:30.756Z,32.90
2019-04-26T19:46:16.999Z,33.60
2019-04-26T19:49:25.798Z,33.60
2019-04-26T19:52:19.239Z,33.50
2019-04-26T19:55:11.460Z,33.50
2019-04-26T19:57:57.517Z,33.50
2019-04-26T20:00:32.176Z,34.50
2019-04-26T20:03:08.452Z,34.40
2019-04-26T20:05:43.489Z,33.40
2019-04-26T20:08:14.786Z,33.50
2019-04-26T20:10:48.277Z,33.40
2019-04-26T20:13:22.007Z,34.40
2019-04-26T20:15:57.462Z,33.70
2019-04-26T20:18:34.402Z,34.20
2019-04-26T20:21:06.503Z,34.30
2019-04-26T20:23:43.684Z,34.00
2019-04-26T20:26:14.282Z,34.10
2019-04-26T20:28:46.643Z,35.10
2019-04-26T20:31:45.022Z,33.70
2019-04-26T20:34:18.162Z,34.50
2019-04-26T20:36:48.925Z,35.20
2019-04-26T20:39:23.965Z,34.80
2019-04-26T20:42:01.915Z,34.30
2019-04-26T20:44:48.058Z,34.90
2019-04-26T20:47:12.002Z,35.00
2019-04-26T20:49:49.581Z,34.50
2019-04-26T20:52:21.339Z,35.80
2019-04-26T20:54:54.103Z,35.20
2019-04-26T20:57:30.653Z,35.10
2019-04-26T21:00:03.222Z,34.30
2019-04-26T21:02:35.237Z,34.30
2019-04-26T21:05:11.246Z,34.80
2019-04-26T21:07:49.107Z,34.70
2019-04-26T21:10:22.208Z,34.50
2019-04-26T21:12:55.225Z,34.20
2019-04-26T21:15:28.062Z,34.20
2019-04-26T21:18:02.751Z,34.20
2019-04-26T21:20:36.510Z,34.30
2019-04-26T21:23:13.317Z,34.30
2019-04-26T21:25:55.114Z,33.80
2019-04-26T21:28:38.202Z,34.00
2019-04-26T21:31:36.129Z,34.00
2019-04-26T21:34:12.461Z,34.80
2019-04-26T21:37:00.442Z,34.70
2019-04-26T21:39:47.652Z,34.20
2019-04-26T21:42:20.930Z,34.80
2019-04-26T21:44:54.939Z,34.80
2019-04-26T21:47:27.541Z,34.20
2019-04-26T21:50:01.226Z,34.80
2019-04-26T21:52:34.330Z,34.00
2019-04-26T21:55:08.635Z,34.60
2019-04-26T21:57:41.909Z,34.50
2019-04-26T22:00:40.604Z,35.30
2019-04-26T22:03:16.089Z,34.40
2019-04-26T22:05:50.695Z,34.50
2019-04-26T22:08:30.006Z,34.00
2019-04-26T22:11:04.582Z,34.30
2019-04-26T22:13:56.228Z,34.20
2019-04-26T22:16:46.993Z,34.00
2019-04-26T22:19:38.054Z,34.30
2019-04-26T22:22:23.242Z,34.50
2019-04-26T22:24:56.664Z,35.20
2019-04-26T22:27:29.625Z,35.00
2019-04-26T22:30:03.918Z,34.80
2019-04-26T22:32:37.105Z,35.10
2019-04-26T22:35:13.448Z,35.30
2019-04-26T22:37:45.610Z,35.60
2019-04-26T22:40:19.963Z,35.20
2019-04-26T22:42:56.749Z,35.90
2019-04-26T22:45:54.101Z,36.10
2019-04-26T22:48:33.941Z,36.80
2019-04-26T22:51:07.267Z,36.90
2019-04-26T22:53:39.644Z,36.90
2019-04-26T22:56:13.416Z,36.90
2019-04-26T22:58:46.305Z,37.60
2019-04-26T23:01:20.552Z,38.50
2019-04-26T23:03:53.866Z,40.20
2019-04-26T23:06:27.854Z,41.40
2019-04-26T23:09:01.192Z,42.60
2019-04-26T23:11:35.034Z,43.70
2019-04-26T23:14:19.145Z,44.00
2019-04-26T23:17:08.418Z,44.50
2019-04-26T23:20:03.857Z,43.70
2019-04-26T23:22:37.668Z,44.40
2019-04-26T23:25:11.008Z,44.50
2019-04-26T23:27:45.038Z,42.80
2019-04-26T23:30:18.147Z,41.60
2019-04-26T23:32:53.235Z,41.40
2019-04-26T23:35:26.925Z,42.50
2019-04-26T23:38:01.323Z,42.00
2019-04-26T23:40:35.569Z,43.90
2019-04-26T23:43:09.755Z,45.00
2019-04-26T23:45:48.377Z,46.40
2019-04-26T23:48:18.424Z,46.90
2019-04-26T23:50:51.255Z,46.30
2019-04-26T23:53:24.600Z,46.00
2019-04-26T23:55:58.376Z,46.00
2019-04-26T23:58:33.203Z,45.40
